Time;durP1;ratioP1;P1;durP2;ratioP2;P2;SDS_P1;SDS_P2;PMS_P1;PMS_P2;Temp;Humidity;BMP_temperature;BMP_pressure;BME280_temperature;BME280_humidity;BME280_pressure;Samples;Min_cycle;Max_cycle;Signal;HPM_P1;HPM_P2
2022/12/23 12:01:16;;;;;;;43.65;14.95;;;9.30;99.90;;;;;;5098027;27;20385;-62
2022/12/23 12:03:52;;;;;;;42.22;13.80;;;9.30;99.90;;;;;;5097184;28;20034;-61
2022/12/23 12:06:18;;;;;;;43.03;15.73;;;9.40;99.90;;;;;;5086410;28;20485;-61
2022/12/23 12:08:50;;;;;;;47.30;13.80;;;9.50;99.90;;;;;;5088244;28;20025;-61
2022/12/23 12:11:45;;;;;;;50.70;16.60;;;9.60;99.90;;;;;;5089633;28;20021;-60
2022/12/23 12:14:31;;;;;;;50.83;15.85;;;9.70;99.90;;;;;;5098700;28;20415;-62
2022/12/23 12:17:09;;;;;;;52.55;15.73;;;9.80;99.90;;;;;;5100784;28;20024;-62
2022/12/23 12:19:52;;;;;;;46.22;16.00;;;9.90;99.90;;;;;;5088757;28;20117;-62
2022/12/23 12:22:31;;;;;;;53.88;17.10;;;9.90;99.90;;;;;;5066601;28;20029;-63
2022/12/23 12:25:03;;;;;;;50.58;16.42;;;10.00;99.90;;;;;;5104898;28;20020;-62
2022/12/23 12:27:36;;;;;;;49.83;16.42;;;10.00;99.90;;;;;;5107321;28;20161;-62
2022/12/23 12:30:09;;;;;;;50.65;16.70;;;10.00;99.90;;;;;;5085926;28;20016;-62
2022/12/23 12:32:52;;;;;;;51.33;15.57;;;10.00;99.90;;;;;;5084786;28;20030;-62
2022/12/23 12:35:36;;;;;;;48.55;15.48;;;10.00;99.90;;;;;;5086911;28;20369;-62
2022/12/23 12:38:33;;;;;;;55.83;18.38;;;10.10;99.90;;;;;;5098363;28;20472;-63
2022/12/23 12:41:15;;;;;;;48.38;16.23;;;10.00;99.90;;;;;;5106774;28;20046;-63
2022/12/23 12:44:22;;;;;;;49.80;16.65;;;10.00;99.90;;;;;;5107215;28;20027;-63
2022/12/23 12:47:02;;;;;;;54.17;16.73;;;10.00;99.90;;;;;;5105580;28;20366;-62
2022/12/23 12:49:39;;;;;;;56.15;18.33;;;10.00;99.90;;;;;;5098138;28;20017;-61
2022/12/23 12:52:10;;;;;;;48.63;16.08;;;10.00;99.90;;;;;;5101365;28;20149;-60
2022/12/23 12:54:51;;;;;;;47.92;16.42;;;10.00;99.90;;;;;;5086030;28;20066;-62
2022/12/23 12:57:19;;;;;;;47.88;16.38;;;10.00;99.90;;;;;;5086814;28;20473;-62
2022/12/23 12:59:48;;;;;;;50.08;17.55;;;10.00;99.90;;;;;;5099462;28;20062;-61
2022/12/23 13:02:23;;;;;;;47.67;15.30;;;10.00;99.90;;;;;;5105985;28;20024;-62
2022/12/23 13:04:58;;;;;;;52.08;17.88;;;10.00;99.90;;;;;;5106907;28;20024;-62
2022/12/23 13:07:38;;;;;;;51.40;18.52;;;10.00;99.90;;;;;;5106398;28;20023;-62
2022/12/23 13:10:10;;;;;;;51.33;17.73;;;10.00;99.90;;;;;;5092899;28;20028;-62
2022/12/23 13:13:26;;;;;;;53.15;17.73;;;10.00;99.90;;;;;;5072713;28;20069;-63
2022/12/23 13:16:22;;;;;;;43.00;14.95;;;10.00;99.90;;;;;;5075704;28;20484;-62
2022/12/23 13:18:57;;;;;;;39.55;14.32;;;10.00;99.90;;;;;;5074137;28;20020;-62
2022/12/23 13:21:39;;;;;;;44.15;15.75;;;10.00;99.90;;;;;;5073168;28;20033;-61
2022/12/23 13:24:20;;;;;;;41.65;14.93;;;10.00;99.90;;;;;;5078968;28;20174;-62
2022/12/23 15:06:52;;;;;;;29.80;11.70;;;9.30;99.90;;;;;;5103565;27;20362;-64
2022/12/23 15:09:28;;;;;;;35.90;12.63;;;9.30;99.90;;;;;;5087967;28;20031;-62
2022/12/23 15:11:56;;;;;;;38.40;14.43;;;9.30;99.90;;;;;;5094707;28;20020;-63
2022/12/23 15:14:53;;;;;;;39.08;15.40;;;9.40;99.90;;;;;;5086886;28;20055;-64
2022/12/23 15:17:35;;;;;;;35.95;14.00;;;9.50;99.90;;;;;;5087094;28;20488;-64
2022/12/23 15:20:10;;;;;;;41.42;14.07;;;9.60;99.90;;;;;;5088037;28;20388;-61
2022/12/23 15:22:41;;;;;;;29.83;13.43;;;9.70;99.90;;;;;;5086047;28;20032;-63
2022/12/23 15:25:27;;;;;;;35.35;14.38;;;9.70;99.90;;;;;;5085531;28;20033;-64
2022/12/23 15:27:54;;;;;;;28.50;12.93;;;9.70;99.90;;;;;;5102824;28;20032;-62
2022/12/23 15:30:21;;;;;;;36.53;16.08;;;9.80;99.90;;;;;;5073931;28;20035;-63
2022/12/23 15:32:50;;;;;;;42.13;17.92;;;9.80;99.90;;;;;;5067414;28;20080;-63
2022/12/23 15:35:23;;;;;;;37.33;16.05;;;9.90;99.90;;;;;;5065930;28;20382;-64
2022/12/23 15:37:49;;;;;;;34.95;14.60;;;9.90;99.90;;;;;;5069415;28;20418;-63
2022/12/23 15:40:26;;;;;;;31.95;12.98;;;9.90;99.90;;;;;;5080693;28;20021;-63
2022/12/23 15:42:52;;;;;;;37.08;15.48;;;9.90;99.90;;;;;;5068851;28;20069;-63
2022/12/23 15:45:41;;;;;;;37.65;15.98;;;9.90;99.90;;;;;;5074403;28;20129;-63
2022/12/23 15:48:23;;;;;;;53.40;18.85;;;10.00;99.90;;;;;;5080633;28;20112;-63
2022/12/23 15:50:52;;;;;;;41.90;18.33;;;10.00;99.90;;;;;;5074953;28;20082;-63
2022/12/23 15:53:19;;;;;;;71.55;25.83;;;10.00;99.90;;;;;;5082177;28;20024;-63
2022/12/23 15:55:47;;;;;;;53.38;22.00;;;9.90;99.90;;;;;;5095890;28;20021;-64
2022/12/23 15:58:19;;;;;;;45.25;17.35;;;9.90;99.90;;;;;;5081698;28;20031;-64
2022/12/23 16:00:56;;;;;;;37.97;14.90;;;9.90;99.90;;;;;;5085469;28;20028;-63
2022/12/23 16:03:32;;;;;;;33.88;14.15;;;9.90;99.90;;;;;;5085611;28;20415;-64
2022/12/23 16:06:16;;;;;;;38.55;15.20;;;9.90;99.90;;;;;;5102698;28;20401;-62
2022/12/23 16:08:43;;;;;;;34.85;13.55;;;9.80;99.90;;;;;;5085696;28;20388;-62
2022/12/23 16:11:17;;;;;;;39.83;13.80;;;9.80;99.90;;;;;;5084414;28;20024;-62
2022/12/23 16:13:59;;;;;;;39.15;14.75;;;9.80;99.90;;;;;;5071813;28;20551;-62
2022/12/23 16:16:33;;;;;;;37.65;14.02;;;9.80;99.90;;;;;;5069223;28;20108;-63
2022/12/23 16:18:58;;;;;;;42.78;16.40;;;9.80;99.90;;;;;;5069047;28;20013;-61
2022/12/23 16:21:30;;;;;;;39.58;16.73;;;9.80;99.90;;;;;;5064163;28;20024;-62
2022/12/23 16:23:56;;;;;;;40.78;15.93;;;9.80;99.90;;;;;;5071285;28;20385;-63
2022/12/23 16:26:22;;;;;;;43.95;15.45;;;9.80;99.90;;;;;;5071145;28;20109;-62
2022/12/23 16:28:51;;;;;;;47.40;18.15;;;9.80;99.90;;;;;;5073087;28;20496;-63
2022/12/23 16:31:18;;;;;;;49.38;18.20;;;9.80;99.90;;;;;;5072593;28;20052;-62
2022/12/23 16:33:52;;;;;;;47.28;19.33;;;9.70;99.90;;;;;;5070705;28;20348;-62
2022/12/23 16:36:26;;;;;;;49.47;20.38;;;9.80;99.90;;;;;;5073179;28;20021;-63
2022/12/23 16:39:15;;;;;;;49.53;19.85;;;9.70;99.90;;;;;;5070315;28;20093;-63
2022/12/23 16:41:41;;;;;;;44.20;18.05;;;9.70;99.90;;;;;;5055904;28;20036;-62
2022/12/23 16:44:06;;;;;;;45.72;17.83;;;9.70;99.90;;;;;;5067603;28;20044;-62
2022/12/23 16:46:36;;;;;;;40.88;18.20;;;9.80;99.90;;;;;;5059584;28;20089;-62
2022/12/23 16:49:04;;;;;;;44.78;17.23;;;9.80;99.90;;;;;;5065773;28;20070;-63
2022/12/23 16:51:32;;;;;;;50.22;18.13;;;9.80;99.90;;;;;;5072544;28;20492;-62
2022/12/23 16:53:59;;;;;;;40.42;17.25;;;9.80;99.90;;;;;;5087509;28;20078;-63
2022/12/23 16:56:34;;;;;;;55.72;22.13;;;9.80;99.90;;;;;;5072853;28;20054;-61
2022/12/23 16:59:00;;;;;;;61.50;24.48;;;9.80;99.90;;;;;;5064976;28;20028;-62
2022/12/23 17:01:35;;;;;;;58.58;22.60;;;9.80;99.90;;;;;;5071310;28;20033;-62
2022/12/23 17:04:00;;;;;;;50.88;22.58;;;9.80;99.90;;;;;;5072220;28;20035;-63
2022/12/23 17:06:26;;;;;;;50.72;21.95;;;9.80;99.90;;;;;;5090024;28;20048;-62
2022/12/23 17:08:52;;;;;;;45.83;19.67;;;9.80;99.90;;;;;;5090047;28;20138;-62
2022/12/23 17:11:34;;;;;;;52.20;19.58;;;9.80;99.90;;;;;;5091524;28;20016;-63
2022/12/23 17:14:00;;;;;;;31.95;14.50;;;9.80;99.90;;;;;;5092054;28;20027;-62
2022/12/23 17:16:26;;;;;;;35.65;15.98;;;9.80;99.90;;;;;;5082180;28;20420;-62
2022/12/23 17:18:52;;;;;;;36.10;16.90;;;9.80;99.90;;;;;;5072281;28;20039;-62
2022/12/23 17:21:35;;;;;;;35.78;16.58;;;9.80;99.90;;;;;;5075340;28;20229;-60
2022/12/23 17:24:17;;;;;;;34.45;16.30;;;9.90;99.90;;;;;;5083684;28;20500;-60
2022/12/23 17:26:43;;;;;;;44.95;20.30;;;9.90;99.90;;;;;;5088391;28;20032;-60
2022/12/23 17:29:10;;;;;;;39.25;18.88;;;9.90;99.90;;;;;;5077059;28;20027;-61
2022/12/23 17:31:37;;;;;;;49.30;21.05;;;9.90;99.90;;;;;;5071420;28;20036;-61
2022/12/23 17:34:02;;;;;;;56.42;22.77;;;9.90;99.90;;;;;;5070076;28;20039;-61
2022/12/23 17:36:28;;;;;;;59.38;27.80;;;9.90;99.90;;;;;;5069793;28;20013;-61
2022/12/23 17:38:54;;;;;;;66.85;29.50;;;9.90;99.90;;;;;;5070374;28;20457;-62
2022/12/23 17:41:31;;;;;;;62.30;29.38;;;9.90;99.90;;;;;;5085970;28;20024;-63
2022/12/23 17:43:57;;;;;;;76.13;33.95;;;9.90;99.90;;;;;;5070800;28;20039;-63
2022/12/23 17:46:23;;;;;;;70.68;33.47;;;9.90;99.90;;;;;;5090991;28;20389;-63
2022/12/23 17:48:49;;;;;;;69.78;29.50;;;9.90;99.90;;;;;;5089701;28;20492;-63
2022/12/23 17:51:16;;;;;;;58.80;26.77;;;9.90;99.90;;;;;;5088889;28;20499;-62
2022/12/23 17:53:43;;;;;;;67.15;27.65;;;9.90;99.90;;;;;;5071370;28;20098;-62
2022/12/23 17:56:17;;;;;;;57.45;25.55;;;9.90;99.90;;;;;;5090318;28;20028;-63
2022/12/23 17:58:43;;;;;;;60.47;25.55;;;9.90;99.90;;;;;;5086620;28;20389;-64
2022/12/23 18:01:24;;;;;;;63.95;26.92;;;9.90;99.90;;;;;;5090606;28;20035;-64
2022/12/23 18:03:50;;;;;;;55.00;27.30;;;9.90;99.90;;;;;;5085892;28;20028;-63
2022/12/23 18:06:18;;;;;;;47.50;21.60;;;9.90;99.90;;;;;;5086352;28;20071;-62
2022/12/23 18:08:44;;;;;;;47.08;21.33;;;9.90;99.90;;;;;;5082675;28;20020;-62
2022/12/23 18:11:25;;;;;;;47.15;22.83;;;10.00;99.90;;;;;;5090108;28;20081;-62
2022/12/23 18:13:52;;;;;;;41.60;17.42;;;10.00;99.90;;;;;;5070405;28;20427;-62
2022/12/23 18:16:18;;;;;;;39.30;16.98;;;10.00;99.90;;;;;;5090388;28;20034;-62
2022/12/23 18:18:44;;;;;;;32.88;15.00;;;10.10;99.90;;;;;;5085972;28;20020;-63
2022/12/23 18:21:15;;;;;;;33.22;14.90;;;10.20;99.90;;;;;;5090596;28;20372;-62
2022/12/23 18:23:41;;;;;;;29.70;14.25;;;10.20;99.90;;;;;;5088050;28;20020;-63
2022/12/23 18:26:12;;;;;;;26.58;13.38;;;10.30;99.90;;;;;;5088038;28;20043;-63
2022/12/23 18:28:37;;;;;;;36.95;14.38;;;10.30;99.90;;;;;;5086244;28;20081;-63
2022/12/23 18:31:03;;;;;;;34.25;14.52;;;10.40;99.90;;;;;;5067564;28;20645;-61
2022/12/23 18:33:29;;;;;;;30.17;13.70;;;10.40;99.90;;;;;;5051116;28;20096;-64
2022/12/23 18:35:54;;;;;;;32.53;14.30;;;10.50;99.90;;;;;;5069236;28;20052;-62
2022/12/23 18:38:20;;;;;;;28.23;14.15;;;10.50;99.90;;;;;;5072903;28;20036;-61
2022/12/23 18:40:48;;;;;;;25.38;11.48;;;10.60;99.90;;;;;;5079829;28;20016;-62
2022/12/23 18:43:19;;;;;;;30.77;12.27;;;10.60;99.90;;;;;;5089267;28;20027;-61
2022/12/23 18:45:45;;;;;;;;;;;10.70;99.90;;;;;;5088109;28;20047;-62
2022/12/23 18:48:11;;;;;;;30.40;12.98;;;10.70;99.90;;;;;;5089729;28;19927;-62
2022/12/23 18:50:39;;;;;;;28.50;12.90;;;10.70;99.90;;;;;;5086488;28;20028;-61
2022/12/23 18:53:09;;;;;;;26.52;12.63;;;10.70;99.90;;;;;;5088773;28;20016;-63
2022/12/23 18:55:35;;;;;;;27.30;9.88;;;10.80;99.90;;;;;;5088479;28;20024;-63
2022/12/23 18:58:00;;;;;;;28.35;10.13;;;10.80;99.90;;;;;;5071896;28;20472;-62
2022/12/23 19:00:29;;;;;;;24.50;8.77;;;10.80;99.90;;;;;;5086291;28;20093;-62
2022/12/23 19:02:55;;;;;;;27.15;8.07;;;10.80;99.90;;;;;;5089096;28;20028;-63
2022/12/23 19:05:28;;;;;;;24.95;7.18;;;10.80;99.90;;;;;;5087625;28;20059;-62
2022/12/23 19:07:57;;;;;;;29.52;7.15;;;10.80;99.90;;;;;;5089544;28;20012;-62
2022/12/23 19:10:29;;;;;;;26.40;7.13;;;10.80;99.90;;;;;;5058135;28;20052;-62
2022/12/23 19:12:55;;;;;;;28.45;6.47;;;10.80;99.90;;;;;;5053637;28;20056;-62
2022/12/23 19:15:21;;;;;;;28.10;7.43;;;10.80;99.90;;;;;;5088823;28;20118;-62
2022/12/23 19:17:49;;;;;;;32.33;6.28;;;10.80;99.90;;;;;;5086274;28;20528;-61
2022/12/23 19:20:15;;;;;;;31.65;6.65;;;10.80;99.90;;;;;;5071429;28;20023;-61
2022/12/23 19:22:42;;;;;;;37.35;7.65;;;10.80;99.90;;;;;;5087833;28;20020;-61
2022/12/23 19:25:10;;;;;;;36.10;7.55;;;10.80;99.90;;;;;;5090098;28;20040;-62
2022/12/23 19:27:37;;;;;;;37.00;7.25;;;10.80;99.90;;;;;;5087154;28;20173;-59
2022/12/23 19:30:04;;;;;;;27.55;6.07;;;10.80;99.90;;;;;;5090272;28;20024;-62
2022/12/23 19:32:30;;;;;;;41.10;7.78;;;10.80;99.90;;;;;;5086848;28;20020;-64
2022/12/23 19:34:55;;;;;;;28.10;5.90;;;10.80;99.90;;;;;;5075186;28;20021;-62
2022/12/23 19:37:21;;;;;;;27.98;6.00;;;10.90;99.90;;;;;;5087954;28;20050;-62
2022/12/23 19:39:48;;;;;;;35.53;6.60;;;10.90;99.90;;;;;;5082172;28;20586;-62
2022/12/23 19:42:14;;;;;;;32.78;5.35;;;10.90;99.90;;;;;;5088736;28;20025;-62
2022/12/23 19:44:40;;;;;;;26.98;4.70;;;10.90;99.90;;;;;;5087600;28;20500;-62
2022/12/23 19:47:06;;;;;;;19.35;4.10;;;10.90;99.90;;;;;;5069054;28;20016;-63
2022/12/23 19:49:33;;;;;;;25.83;4.53;;;10.90;99.90;;;;;;5068792;28;20425;-64
2022/12/23 19:51:59;;;;;;;36.50;5.38;;;10.80;99.90;;;;;;5083704;28;20016;-62
2022/12/23 19:54:24;;;;;;;26.42;4.80;;;10.80;99.90;;;;;;5059208;28;20028;-63
2022/12/23 19:56:50;;;;;;;27.85;6.20;;;10.80;99.90;;;;;;5085804;28;20457;-63
2022/12/23 19:59:16;;;;;;;30.88;6.00;;;10.80;99.90;;;;;;5061186;28;20017;-62
2022/12/23 20:01:42;;;;;;;32.15;5.45;;;10.70;99.90;;;;;;5093063;28;20028;-63
2022/12/23 20:04:08;;;;;;;18.02;4.72;;;10.70;99.90;;;;;;5070134;28;20468;-63
2022/12/23 20:06:37;;;;;;;25.83;5.13;;;10.70;99.90;;;;;;5033003;28;20037;-63
2022/12/23 20:09:05;;;;;;;23.00;4.63;;;10.70;99.90;;;;;;5042609;28;20088;-63
2022/12/23 20:11:42;;;;;;;18.70;5.80;;;10.80;99.90;;;;;;5032792;28;20044;-63
2022/12/23 20:14:08;;;;;;;25.38;5.35;;;10.80;99.90;;;;;;5032684;28;20024;-63
2022/12/23 20:16:36;;;;;;;32.15;6.05;;;10.80;99.90;;;;;;5031795;28;20072;-63
2022/12/23 20:19:01;;;;;;;32.90;6.28;;;10.90;99.90;;;;;;5040860;28;20432;-62
2022/12/23 20:21:27;;;;;;;27.20;4.97;;;10.80;99.90;;;;;;5049028;28;20111;-63
2022/12/23 20:23:53;;;;;;;24.60;5.03;;;10.90;99.90;;;;;;5052121;28;20029;-63
2022/12/23 20:26:19;;;;;;;18.55;3.85;;;10.90;99.90;;;;;;5050641;28;20037;-61
2022/12/23 20:28:45;;;;;;;20.60;5.20;;;10.90;99.90;;;;;;5052053;28;20029;-63
2022/12/23 20:31:15;;;;;;;26.17;5.32;;;10.90;99.90;;;;;;5048906;28;20021;-62
2022/12/23 20:33:43;;;;;;;21.20;4.47;;;11.00;99.90;;;;;;5033002;28;20012;-62
2022/12/23 20:36:11;;;;;;;21.90;5.72;;;11.00;99.90;;;;;;5044098;28;20020;-62
2022/12/23 20:38:38;;;;;;;15.88;4.70;;;11.00;99.90;;;;;;5033507;28;20032;-65
2022/12/23 20:41:06;;;;;;;15.88;4.80;;;11.00;99.90;;;;;;5045246;28;20488;-63
2022/12/23 20:43:35;;;;;;;22.05;5.22;;;11.00;99.90;;;;;;5033191;28;20056;-64
2022/12/23 20:46:02;;;;;;;23.50;5.40;;;11.00;99.90;;;;;;5033246;28;20478;-64
2022/12/23 20:48:28;;;;;;;22.50;5.45;;;11.00;99.90;;;;;;5034313;28;20083;-63
2022/12/23 20:50:54;;;;;;;25.98;6.80;;;11.00;99.90;;;;;;5053408;28;20029;-63
2022/12/23 20:53:19;;;;;;;29.55;5.80;;;11.00;99.90;;;;;;5051644;28;20544;-64
2022/12/23 20:55:45;;;;;;;24.00;6.50;;;11.00;99.90;;;;;;5052852;28;20200;-65
2022/12/23 21:00:55;;;;;;;18.52;6.25;;;11.10;99.90;;;;;;5050875;28;20035;-64
2022/12/23 21:03:20;;;;;;;24.23;7.03;;;11.00;99.90;;;;;;5031562;28;20034;-63
2022/12/23 21:05:46;;;;;;;24.83;6.53;;;11.00;99.90;;;;;;5078587;28;20083;-64
2022/12/23 21:08:12;;;;;;;26.73;6.05;;;11.00;99.90;;;;;;5089212;28;20051;-63
2022/12/23 21:10:38;;;;;;;14.05;4.72;;;11.00;99.90;;;;;;5093167;28;20493;-64
2022/12/23 21:13:04;;;;;;;14.38;4.47;;;11.00;99.90;;;;;;5092113;28;20024;-64
2022/12/23 21:15:31;;;;;;;16.92;4.90;;;11.00;99.90;;;;;;5086845;28;20043;-63
2022/12/23 21:17:57;;;;;;;16.65;4.70;;;11.00;99.90;;;;;;5092969;28;20476;-64
2022/12/23 21:20:22;;;;;;;16.95;4.25;;;11.10;99.90;;;;;;5074230;28;20028;-64
2022/12/23 21:22:48;;;;;;;11.82;3.35;;;11.10;99.90;;;;;;5092215;28;20020;-64
2022/12/23 21:25:14;;;;;;;15.35;4.38;;;11.10;99.90;;;;;;5091104;28;20469;-64
2022/12/23 21:27:41;;;;;;;14.75;4.00;;;11.10;99.90;;;;;;5089933;28;20372;-63
2022/12/23 21:30:08;;;;;;;19.80;3.97;;;11.00;99.90;;;;;;5088797;28;20366;-64
2022/12/23 21:32:34;;;;;;;15.32;3.95;;;11.00;99.90;;;;;;5067698;28;20032;-64
2022/12/23 21:35:01;;;;;;;13.13;4.18;;;11.00;99.90;;;;;;5091054;28;20036;-64
2022/12/23 21:37:28;;;;;;;14.75;4.97;;;11.00;99.90;;;;;;5093047;28;20046;-64
2022/12/23 21:39:53;;;;;;;17.27;4.50;;;11.00;99.90;;;;;;5090351;28;20374;-64
2022/12/23 21:42:19;;;;;;;20.08;4.75;;;11.00;99.90;;;;;;5073930;28;20051;-64
2022/12/23 21:44:45;;;;;;;15.32;4.78;;;11.00;99.90;;;;;;5074011;28;20558;-64
2022/12/23 21:47:11;;;;;;;15.90;5.15;;;11.10;99.90;;;;;;5074212;28;20032;-63
2022/12/23 21:49:37;;;;;;;20.13;4.45;;;11.00;99.90;;;;;;5090458;28;20127;-64
2022/12/23 21:52:02;;;;;;;21.35;5.05;;;11.00;99.90;;;;;;5082827;28;20021;-64
2022/12/23 21:54:28;;;;;;;19.23;4.40;;;11.00;99.90;;;;;;5073494;28;20051;-62
2022/12/23 21:56:53;;;;;;;12.82;3.65;;;11.00;99.90;;;;;;5087058;28;20070;-64
2022/12/23 21:59:19;;;;;;;16.52;3.38;;;11.00;99.90;;;;;;5092555;28;20473;-64
2022/12/23 22:01:45;;;;;;;20.60;4.00;;;11.00;99.90;;;;;;5064027;28;20440;-64
2022/12/23 22:04:10;;;;;;;18.20;4.13;;;11.00;99.90;;;;;;5053155;28;20028;-63
2022/12/23 22:06:40;;;;;;;24.45;4.80;;;11.00;99.90;;;;;;5073485;28;20024;-62
2022/12/23 22:09:06;;;;;;;18.92;4.40;;;11.00;99.90;;;;;;5090616;28;20552;-63
2022/12/23 22:11:36;;;;;;;11.02;3.33;;;11.00;99.90;;;;;;5080686;28;20024;-64
2022/12/23 22:14:04;;;;;;;12.00;4.60;;;10.90;99.90;;;;;;5071312;28;20462;-64
2022/12/23 22:16:30;;;;;;;20.67;5.05;;;10.90;99.90;;;;;;5070961;28;20046;-63
2022/12/23 22:18:57;;;;;;;12.77;3.70;;;10.90;99.90;;;;;;5071372;28;20112;-63
2022/12/23 22:21:24;;;;;;;18.55;3.60;;;10.90;99.90;;;;;;5074147;28;20131;-63
2022/12/23 22:23:52;;;;;;;20.92;3.55;;;10.80;99.90;;;;;;5053585;28;20029;-63
2022/12/23 22:26:20;;;;;;;18.10;3.83;;;10.80;99.90;;;;;;5081576;28;20032;-63
2022/12/23 22:28:46;;;;;;;16.33;3.70;;;10.80;99.90;;;;;;5056152;28;20017;-63
2022/12/23 22:31:16;;;;;;;15.85;3.88;;;10.80;99.90;;;;;;5052794;28;20029;-60
2022/12/23 22:33:42;;;;;;;12.65;3.65;;;10.80;99.90;;;;;;5053307;28;20032;-63
2022/12/23 22:36:12;;;;;;;15.85;3.45;;;10.80;99.90;;;;;;5071440;28;20099;-63
2022/12/23 22:38:38;;;;;;;16.95;3.13;;;10.80;99.90;;;;;;5070786;28;20029;-63
2022/12/23 22:41:03;;;;;;;19.52;3.92;;;10.70;99.90;;;;;;5071243;28;20095;-63
2022/12/23 22:43:29;;;;;;;18.58;3.70;;;10.70;99.90;;;;;;5076440;28;20032;-62
2022/12/23 22:45:56;;;;;;;21.55;3.35;;;10.80;99.90;;;;;;5084673;28;20543;-62
2022/12/23 22:48:23;;;;;;;21.05;3.72;;;10.80;99.90;;;;;;5090372;28;20015;-63
2022/12/23 22:50:48;;;;;;;14.68;3.05;;;10.70;99.90;;;;;;5078771;28;20017;-62
2022/12/23 22:53:14;;;;;;;21.33;3.95;;;10.80;99.90;;;;;;5090682;28;20399;-62
2022/12/23 22:55:40;;;;;;;17.83;4.45;;;10.70;99.90;;;;;;5081952;28;20114;-61
2022/12/23 22:58:05;;;;;;;18.05;3.25;;;10.70;99.90;;;;;;5080710;28;20138;-62
2022/12/23 23:00:31;;;;;;;18.55;3.50;;;10.70;99.90;;;;;;5088983;28;20476;-62
2022/12/23 23:02:57;;;;;;;14.20;3.28;;;10.70;99.90;;;;;;5076119;28;20024;-62
2022/12/23 23:05:23;;;;;;;17.65;3.92;;;10.70;99.90;;;;;;5085580;28;20041;-63
2022/12/23 23:07:49;;;;;;;17.45;3.80;;;10.70;99.90;;;;;;5073253;28;20028;-63
2022/12/23 23:10:15;;;;;;;21.80;4.13;;;10.70;99.90;;;;;;5081210;28;20562;-63
2022/12/23 23:12:42;;;;;;;21.05;4.50;;;10.60;99.90;;;;;;5084283;28;20106;-62
2022/12/23 23:15:09;;;;;;;19.20;3.92;;;10.60;99.90;;;;;;5086548;28;20016;-62
2022/12/23 23:17:34;;;;;;;20.15;4.30;;;10.60;99.90;;;;;;5070387;28;20109;-62
2022/12/23 23:20:00;;;;;;;22.30;5.07;;;10.60;99.90;;;;;;5070120;28;20092;-63
2022/12/23 23:22:26;;;;;;;17.60;3.97;;;10.60;99.90;;;;;;5070609;28;20078;-62
2022/12/23 23:24:51;;;;;;;16.13;3.90;;;10.60;99.90;;;;;;5070523;28;20040;-62
2022/12/23 23:27:17;;;;;;;17.80;3.92;;;10.70;99.90;;;;;;5080315;28;20048;-63
2022/12/23 23:29:43;;;;;;;15.30;3.40;;;10.70;99.90;;;;;;5080816;28;20020;-63
2022/12/23 23:32:09;;;;;;;14.85;4.28;;;10.60;99.90;;;;;;5067074;28;21095;-63
2022/12/23 23:34:35;;;;;;;22.50;4.32;;;10.60;99.90;;;;;;5073616;28;20467;-61
2022/12/23 23:37:03;;;;;;;12.82;3.63;;;10.60;99.90;;;;;;5074690;28;20041;-61
2022/12/23 23:39:29;;;;;;;22.98;4.20;;;10.60;99.90;;;;;;5074197;28;20086;-61
2022/12/23 23:41:55;;;;;;;14.43;5.07;;;10.70;99.90;;;;;;5073395;28;20024;-62
2022/12/23 23:44:21;;;;;;;16.42;3.85;;;10.70;99.90;;;;;;5094553;28;20035;-61
2022/12/23 23:46:46;;;;;;;17.25;3.50;;;10.70;99.90;;;;;;5084432;28;20044;-63
2022/12/23 23:49:13;;;;;;;19.95;4.72;;;10.70;99.90;;;;;;5073501;28;20512;-62
2022/12/23 23:51:40;;;;;;;18.00;4.20;;;10.70;99.90;;;;;;5082073;28;20127;-62
2022/12/23 23:54:07;;;;;;;21.58;4.10;;;10.70;99.90;;;;;;5094482;28;20020;-62
2022/12/23 23:56:32;;;;;;;16.30;3.60;;;10.70;99.90;;;;;;5075533;28;20054;-62
2022/12/23 23:58:58;;;;;;;13.25;3.72;;;10.70;99.90;;;;;;5076422;28;20058;-63
